createdAt,value
2018-07-03T00:00:53.604Z,98170.75
2018-07-03T00:03:24.048Z,98180.27
2018-07-03T00:05:53.453Z,98178.68
2018-07-03T00:08:22.764Z,98186.09
2018-07-03T00:10:52.079Z,98185.44
2018-07-03T00:13:21.400Z,98181.53
2018-07-03T00:15:50.716Z,98185.38
2018-07-03T00:18:20.048Z,98180.58
2018-07-03T00:20:49.375Z,98179.91
2018-07-03T00:23:18.689Z,98186.13
2018-07-03T00:25:48.032Z,98185.42
2018-07-03T00:28:17.347Z,98186.92
2018-07-03T00:30:46.684Z,98187.80
2018-07-03T00:33:16.051Z,98180.35
2018-07-03T00:35:45.372Z,98183.05
2018-07-03T00:38:14.699Z,98180.48
2018-07-03T00:40:43.992Z,98177.98
2018-07-03T00:43:13.344Z,98177.75
2018-07-03T00:45:42.645Z,98169.18
2018-07-03T00:48:11.968Z,98167.01
2018-07-03T00:50:41.316Z,98171.76
2018-07-03T00:53:10.617Z,98180.48
2018-07-03T00:55:39.956Z,98174.16
2018-07-03T00:58:09.288Z,98171.92
2018-07-03T01:00:38.604Z,98172.91
2018-07-03T01:03:07.944Z,98172.63
2018-07-03T01:05:37.269Z,98170.94
2018-07-03T01:08:06.598Z,98171.86
2018-07-03T01:10:35.914Z,98173.80
2018-07-03T01:13:05.315Z,98161.84
2018-07-03T01:15:34.620Z,98164.99
2018-07-03T01:18:03.928Z,98162.92
2018-07-03T01:20:33.251Z,98160.05
2018-07-03T01:23:02.585Z,98162.80
2018-07-03T01:25:31.895Z,98165.40
2018-07-03T01:28:01.216Z,98168.09
2018-07-03T01:30:30.520Z,98170.68
2018-07-03T01:32:59.852Z,98168.96
2018-07-03T01:35:29.160Z,98168.49
2018-07-03T01:37:58.471Z,98163.05
2018-07-03T01:40:27.800Z,98171.20
2018-07-03T01:42:57.131Z,98170.77
2018-07-03T01:45:26.483Z,98173.83
2018-07-03T01:47:55.797Z,98175.55
2018-07-03T01:50:25.097Z,98177.73
2018-07-03T01:52:54.688Z,98169.17
2018-07-03T01:55:24.033Z,98176.98
2018-07-03T01:57:53.377Z,98176.52
2018-07-03T02:00:22.697Z,98170.15
2018-07-03T02:02:52.040Z,98168.50
2018-07-03T02:05:21.360Z,98163.89
2018-07-03T02:07:53.121Z,98164.23
2018-07-03T02:10:22.483Z,98160.84
2018-07-03T02:12:51.819Z,98159.62
2018-07-03T02:15:21.266Z,98157.08
2018-07-03T02:17:50.592Z,98166.05
2018-07-03T02:20:19.912Z,98164.76
2018-07-03T02:22:49.227Z,98160.56
2018-07-03T02:25:18.555Z,98162.33
2018-07-03T02:27:47.865Z,98156.75
2018-07-03T02:30:17.260Z,98166.16
2018-07-03T02:32:46.574Z,98161.17
2018-07-03T02:35:15.925Z,98159.49
2018-07-03T02:37:45.218Z,98161.21
2018-07-03T02:40:14.531Z,98157.72
2018-07-03T02:42:43.900Z,98167.17
2018-07-03T02:48:27.548Z,98164.17
2018-07-03T02:50:56.896Z,98163.83
2018-07-03T02:53:26.264Z,98161.33
2018-07-03T02:55:55.669Z,98164.31
2018-07-03T02:58:25.116Z,98169.92
2018-07-03T03:00:54.436Z,98169.50
2018-07-03T03:03:23.748Z,98162.69
2018-07-03T03:05:53.235Z,98162.75
2018-07-03T03:08:22.630Z,98156.43
2018-07-03T03:10:51.964Z,98162.86
2018-07-03T03:13:21.283Z,98163.70
2018-07-03T03:15:50.617Z,98159.03
2018-07-03T03:18:19.948Z,98160.33
2018-07-03T03:20:49.257Z,98162.45
2018-07-03T03:23:18.571Z,98157.31
2018-07-03T03:25:47.924Z,98160.31
2018-07-03T03:28:17.243Z,98160.75
2018-07-03T03:30:46.560Z,98153.89
2018-07-03T03:33:15.888Z,98154.73
2018-07-03T03:35:45.194Z,98158.17
2018-07-03T03:38:14.540Z,98159.89
2018-07-03T03:40:43.857Z,98156.92
2018-07-03T03:43:13.236Z,98159.10
2018-07-03T03:45:42.536Z,98166.78
2018-07-03T03:48:11.848Z,98171.91
2018-07-03T03:50:41.208Z,98169.80
2018-07-03T03:53:10.532Z,98175.76
2018-07-03T03:55:39.860Z,98174.44
2018-07-03T03:58:09.179Z,98174.02
2018-07-03T04:00:38.508Z,98178.27
2018-07-03T04:03:07.837Z,98180.83
2018-07-03T04:05:37.144Z,98179.95
2018-07-03T04:08:06.696Z,98184.66
2018-07-03T04:10:36.037Z,98192.32
2018-07-03T04:13:05.340Z,98186.30
2018-07-03T04:15:34.700Z,98188.40
2018-07-03T04:18:04.061Z,98188.79
2018-07-03T04:20:33.376Z,98190.87
2018-07-03T04:23:02.735Z,98195.95
2018-07-03T04:25:32.082Z,98191.63
2018-07-03T04:28:01.396Z,98186.13
2018-07-03T04:30:30.936Z,98190.40
2018-07-03T04:33:00.272Z,98189.09
2018-07-03T04:35:29.600Z,98183.88
2018-07-03T04:37:58.900Z,98177.78
2018-07-03T04:40:28.220Z,98180.27
2018-07-03T04:42:57.587Z,98178.94
2018-07-03T04:45:26.920Z,98186.16
2018-07-03T04:47:56.257Z,98184.45
2018-07-03T04:50:25.557Z,98190.44
2018-07-03T04:52:55.331Z,98187.33
2018-07-03T04:55:24.648Z,98193.67
2018-07-03T04:57:53.972Z,98197.89
2018-07-03T05:00:23.319Z,98195.33
2018-07-03T05:02:52.636Z,98194.80
2018-07-03T05:05:21.989Z,98198.02
2018-07-03T05:07:51.309Z,98194.41
2018-07-03T05:10:20.673Z,98190.39
2018-07-03T05:12:49.988Z,98192.41
2018-07-03T05:15:19.708Z,98198.20
2018-07-03T05:17:49.183Z,98196.67
2018-07-03T05:20:18.493Z,98197.92
2018-07-03T05:22:47.816Z,98200.31
2018-07-03T05:25:17.154Z,98203.13
2018-07-03T05:27:46.496Z,98204.23
2018-07-03T05:30:15.852Z,98198.47
2018-07-03T05:32:45.153Z,98193.14
2018-07-03T05:35:14.552Z,98192.84
2018-07-03T05:37:43.872Z,98197.77
2018-07-03T05:40:13.204Z,98195.41
2018-07-03T05:42:42.510Z,98201.94
2018-07-03T05:45:11.849Z,98203.73
2018-07-03T05:47:41.172Z,98203.03
2018-07-03T05:50:10.510Z,98195.51
2018-07-03T05:52:39.832Z,98198.06
2018-07-03T05:55:09.190Z,98203.61
2018-07-03T05:57:38.540Z,98204.10
2018-07-03T06:00:08.059Z,98206.02
2018-07-03T06:02:37.402Z,98207.38
2018-07-03T06:05:06.725Z,98206.94
2018-07-03T06:07:36.081Z,98204.28
2018-07-03T06:10:05.691Z,98201.69
2018-07-03T06:12:35.004Z,98196.11
2018-07-03T06:15:04.531Z,98200.50
2018-07-03T06:17:33.810Z,98202.25
2018-07-03T06:20:03.169Z,98208.91
2018-07-03T06:22:32.682Z,98205.91
2018-07-03T06:25:01.800Z,98203.92
2018-07-03T06:27:31.096Z,98203.86
2018-07-03T06:30:00.410Z,98207.19
2018-07-03T06:32:29.747Z,98204.91
2018-07-03T06:34:59.088Z,98204.47
2018-07-03T06:37:28.458Z,98201.22
2018-07-03T06:39:57.775Z,98203.30
2018-07-03T06:42:27.083Z,98205.95
2018-07-03T06:44:56.445Z,98201.42
2018-07-03T06:47:25.796Z,98202.18
2018-07-03T06:49:55.044Z,98206.47
2018-07-03T06:52:24.365Z,98201.16
2018-07-03T06:54:53.684Z,98165.37
2018-07-03T06:57:23.065Z,98195.77
2018-07-03T06:59:52.380Z,98198.59
2018-07-03T07:02:21.745Z,98196.55
2018-07-03T07:04:51.060Z,98200.62
2018-07-03T07:07:20.437Z,98203.55
2018-07-03T07:09:49.780Z,98207.16
2018-07-03T07:12:19.096Z,98206.56
2018-07-03T07:14:48.408Z,98205.30
2018-07-03T07:17:17.724Z,98204.65
2018-07-03T07:19:47.052Z,98202.64
2018-07-03T07:22:16.397Z,98199.16
2018-07-03T07:24:45.712Z,98171.78
2018-07-03T07:27:15.044Z,98207.37
2018-07-03T07:29:44.372Z,98198.92
2018-07-03T07:32:13.701Z,98202.23
2018-07-03T07:34:43.032Z,98198.36
2018-07-03T07:37:12.401Z,98201.52
2018-07-03T07:39:41.703Z,98201.66
2018-07-03T07:42:11.052Z,98206.57
2018-07-03T07:44:40.376Z,98199.27
2018-07-03T07:47:09.756Z,98195.14
2018-07-03T07:49:39.073Z,98194.02
2018-07-03T07:52:08.461Z,98192.45
2018-07-03T07:54:37.784Z,98192.25
2018-07-03T07:57:07.104Z,98195.39
2018-07-03T07:59:36.471Z,98195.13
2018-07-03T08:02:06.086Z,98188.37
2018-07-03T08:04:35.396Z,98191.45
2018-07-03T08:07:04.768Z,98190.36
2018-07-03T08:09:34.097Z,98180.07
2018-07-03T08:12:03.518Z,98183.45
2018-07-03T08:14:32.840Z,98172.30
2018-07-03T08:17:02.152Z,98172.41
2018-07-03T08:19:31.488Z,98175.86
2018-07-03T08:22:00.800Z,98175.55
2018-07-03T08:24:30.149Z,98164.86
2018-07-03T08:26:59.479Z,98171.86
2018-07-03T08:29:28.804Z,98172.69
2018-07-03T08:31:58.148Z,98168.42
2018-07-03T08:34:27.519Z,98171.72
2018-07-03T08:36:56.838Z,98173.02
2018-07-03T08:39:26.495Z,98178.06
2018-07-03T08:41:56.164Z,98168.80
2018-07-03T08:44:25.499Z,98171.55
2018-07-03T08:46:54.885Z,98162.38
2018-07-03T08:49:24.226Z,98165.13
2018-07-03T08:51:53.601Z,98164.15
2018-07-03T08:54:22.871Z,98169.39
2018-07-03T08:56:52.253Z,98171.27
2018-07-03T08:59:21.567Z,98176.88
2018-07-03T09:01:50.868Z,98172.69
2018-07-03T09:04:20.466Z,98170.61
2018-07-03T09:06:50.017Z,98172.03
2018-07-03T09:09:19.333Z,98176.62
2018-07-03T09:11:48.973Z,98175.05
2018-07-03T09:14:18.347Z,98176.44
2018-07-03T09:16:47.684Z,98177.27
2018-07-03T09:19:17.014Z,98168.28
2018-07-03T09:21:46.328Z,98168.86
2018-07-03T09:24:15.657Z,98164.58
2018-07-03T09:26:45.021Z,98175.95
2018-07-03T09:29:14.308Z,98172.52
2018-07-03T09:31:43.652Z,98169.31
2018-07-03T09:34:13.035Z,98161.08
2018-07-03T09:36:42.358Z,98166.62
2018-07-03T09:39:11.776Z,98166.52
2018-07-03T09:41:41.101Z,98166.76
2018-07-03T09:44:10.905Z,98160.55
2018-07-03T09:46:40.280Z,98153.53
2018-07-03T09:49:09.609Z,98156.69
2018-07-03T09:51:38.912Z,98151.88
2018-07-03T09:54:08.276Z,98151.31
2018-07-03T09:56:37.597Z,98155.00
2018-07-03T09:59:06.916Z,98151.36
2018-07-03T10:01:36.236Z,98149.53
2018-07-03T10:04:05.599Z,98151.69
2018-07-03T10:06:34.986Z,98155.42
2018-07-03T10:09:06.410Z,98151.13
2018-07-03T10:11:35.709Z,98152.95
2018-07-03T10:14:05.049Z,98150.00
2018-07-03T10:16:34.392Z,98143.09
2018-07-03T10:19:03.756Z,98139.36
2018-07-03T10:21:33.079Z,98144.86
2018-07-03T10:24:02.451Z,98137.62
2018-07-03T10:26:31.822Z,98135.67
2018-07-03T10:29:01.476Z,98138.75
2018-07-03T10:31:31.127Z,98137.23
2018-07-03T10:34:00.476Z,98142.42
2018-07-03T10:36:29.804Z,98131.41
2018-07-03T10:38:59.128Z,98134.41
2018-07-03T10:41:28.460Z,98134.16
2018-07-03T10:43:57.759Z,98132.63
2018-07-03T10:46:28.232Z,98128.59
2018-07-03T10:48:57.622Z,98130.34
2018-07-03T10:51:26.939Z,98131.66
2018-07-03T10:53:56.254Z,98130.03
2018-07-03T10:56:25.560Z,98121.75
2018-07-03T10:58:54.937Z,98131.27
2018-07-03T11:01:24.257Z,98129.79
2018-07-03T11:03:53.575Z,98128.23
2018-07-03T11:06:22.892Z,98124.77
2018-07-03T11:08:52.241Z,98121.07
2018-07-03T11:11:21.602Z,98124.97
2018-07-03T11:13:50.955Z,98124.61
2018-07-03T11:16:20.276Z,98120.95
2018-07-03T11:18:49.612Z,98120.34
2018-07-03T11:21:18.953Z,98117.47
2018-07-03T11:23:48.268Z,98122.47
2018-07-03T11:26:17.593Z,98119.66
2018-07-03T11:28:46.937Z,98121.82
2018-07-03T11:31:16.245Z,98122.53
2018-07-03T11:33:45.612Z,98122.03
2018-07-03T11:36:14.898Z,98120.45
2018-07-03T11:38:44.242Z,98126.25
2018-07-03T11:41:13.548Z,98116.69
2018-07-03T11:43:42.892Z,98119.30
2018-07-03T11:46:12.226Z,98114.62
2018-07-03T11:48:41.564Z,98116.06
2018-07-03T11:51:10.890Z,98102.02
2018-07-03T11:53:40.261Z,98106.91
2018-07-03T11:56:09.559Z,98108.37
2018-07-03T11:58:38.892Z,98105.88
2018-07-03T12:01:08.249Z,98113.54
2018-07-03T12:03:37.565Z,98103.01
2018-07-03T12:06:06.896Z,98098.83
2018-07-03T12:08:36.196Z,98099.53
2018-07-03T12:11:05.534Z,98096.36
2018-07-03T12:13:34.824Z,98099.94
2018-07-03T12:16:04.166Z,98089.68
2018-07-03T12:18:38.701Z,98089.94
2018-07-03T12:21:08.100Z,98086.91
2018-07-03T12:23:37.431Z,98081.37
2018-07-03T12:26:07.002Z,98086.69
2018-07-03T12:28:36.357Z,98075.71
2018-07-03T12:31:05.678Z,98084.12
2018-07-03T12:33:34.999Z,98077.16
2018-07-03T12:36:04.896Z,98070.33
2018-07-03T12:38:34.204Z,98073.83
2018-07-03T12:41:03.549Z,98077.06
2018-07-03T12:43:32.883Z,98072.67
2018-07-03T12:46:02.202Z,98073.44
2018-07-03T12:48:31.515Z,98071.98
2018-07-03T12:51:00.878Z,98069.86
2018-07-03T12:53:30.244Z,98069.44
2018-07-03T12:55:59.621Z,98063.77
2018-07-03T12:58:29.174Z,98062.21
2018-07-03T13:00:58.545Z,98054.52
2018-07-03T13:03:27.855Z,98060.17
2018-07-03T13:05:57.203Z,98056.61
2018-07-03T13:08:26.524Z,98061.28
2018-07-03T13:10:55.849Z,98055.42
2018-07-03T13:13:25.457Z,98056.98
2018-07-03T13:15:54.857Z,98056.25
2018-07-03T13:18:24.547Z,98052.79
2018-07-03T13:20:54.793Z,98052.75
2018-07-03T13:23:25.383Z,98050.08
2018-07-03T13:25:54.735Z,98050.63
2018-07-03T13:28:24.079Z,98047.30
2018-07-03T13:30:53.436Z,98043.47
2018-07-03T13:33:22.777Z,98046.10
2018-07-03T13:35:52.103Z,98043.47
2018-07-03T13:38:21.468Z,98048.13
2018-07-03T13:40:50.804Z,98039.15
2018-07-03T13:43:20.960Z,98034.10
2018-07-03T13:45:50.297Z,98033.16
2018-07-03T13:48:19.729Z,98035.52
2018-07-03T13:50:48.942Z,98036.31
2018-07-03T13:53:18.272Z,98027.72
2018-07-03T13:55:47.600Z,98022.95
2018-07-03T13:58:16.892Z,98022.91
2018-07-03T14:00:46.192Z,98018.36
2018-07-03T14:03:15.551Z,98022.61
2018-07-03T14:05:44.864Z,98013.44
2018-07-03T14:08:14.208Z,98004.05
2018-07-03T14:10:43.527Z,98007.00
2018-07-03T14:13:12.841Z,98010.67
2018-07-03T14:15:42.192Z,98004.42
2018-07-03T14:18:11.523Z,97999.69
2018-07-03T14:20:40.896Z,98002.59
2018-07-03T14:23:10.220Z,98007.25
2018-07-03T14:25:39.785Z,97994.80
2018-07-03T14:28:09.139Z,97998.94
2018-07-03T14:30:38.470Z,97994.03
2018-07-03T14:33:07.781Z,97995.20
2018-07-03T14:35:37.095Z,97993.92
2018-07-03T14:38:06.952Z,97992.80
2018-07-03T14:40:36.302Z,97991.09
2018-07-03T14:43:05.632Z,97982.95
2018-07-03T14:45:34.968Z,97982.64
2018-07-03T14:48:04.320Z,97978.91
2018-07-03T14:50:33.654Z,97981.89
2018-07-03T14:53:02.933Z,97977.72
2018-07-03T14:55:32.264Z,97973.06
2018-07-03T14:58:01.784Z,97967.55
2018-07-03T15:00:31.079Z,97968.50
2018-07-03T15:03:00.450Z,97970.38
2018-07-03T15:05:29.752Z,97965.42
2018-07-03T15:07:59.068Z,97963.89
2018-07-03T15:10:28.380Z,97974.12
2018-07-03T15:12:57.740Z,97962.77
2018-07-03T15:15:27.616Z,97969.00
2018-07-03T15:17:56.930Z,97965.01
2018-07-03T15:20:26.266Z,97959.39
2018-07-03T15:22:55.608Z,97961.45
2018-07-03T15:25:24.932Z,97956.88
2018-07-03T15:27:54.276Z,97953.95
2018-07-03T15:30:23.599Z,97957.97
2018-07-03T15:32:52.928Z,97953.09
2018-07-03T15:35:22.253Z,97947.22
2018-07-03T15:37:51.596Z,97945.75
2018-07-03T15:40:21.016Z,97943.27
2018-07-03T15:42:50.336Z,97935.72
2018-07-03T15:45:19.661Z,97934.44
2018-07-03T15:47:48.992Z,97942.39
2018-07-03T15:50:18.336Z,97937.36
2018-07-03T15:52:47.653Z,97936.45
2018-07-03T15:55:16.948Z,97934.31
2018-07-03T15:57:46.299Z,97931.95
2018-07-03T16:00:16.168Z,97932.46
2018-07-03T16:05:06.437Z,97925.53
2018-07-03T16:08:14.760Z,97929.36
2018-07-03T16:10:44.394Z,97915.98
2018-07-03T16:13:13.732Z,97915.08
2018-07-03T16:15:43.063Z,97921.10
2018-07-03T16:18:12.416Z,97913.35
2018-07-03T16:20:42.563Z,97912.02
2018-07-03T16:23:11.978Z,97906.28
2018-07-03T16:25:41.294Z,97905.94
2018-07-03T16:28:10.636Z,97909.73
2018-07-03T16:30:40.003Z,97900.54
2018-07-03T16:33:09.343Z,97900.00
2018-07-03T16:35:38.637Z,97903.86
2018-07-03T16:38:08.175Z,97902.85
2018-07-03T16:40:37.515Z,97897.78
2018-07-03T16:43:06.841Z,97895.80
2018-07-03T16:45:36.216Z,97886.82
2018-07-03T16:48:05.494Z,97894.44
2018-07-03T16:50:34.840Z,97894.73
2018-07-03T16:53:04.177Z,97890.86
2018-07-03T16:55:33.481Z,97896.14
2018-07-03T16:58:02.919Z,97893.03
2018-07-03T17:00:32.281Z,97894.30
2018-07-03T17:03:01.594Z,97890.25
2018-07-03T17:05:30.896Z,97884.14
2018-07-03T17:08:00.209Z,97884.61
2018-07-03T17:10:29.520Z,97885.86
2018-07-03T17:12:58.836Z,97887.72
2018-07-03T17:15:28.161Z,97891.90
2018-07-03T17:17:57.479Z,97888.19
2018-07-03T17:20:26.797Z,97888.36
2018-07-03T17:22:56.369Z,97892.13
2018-07-03T17:25:25.706Z,97888.02
2018-07-03T17:27:55.033Z,97889.50
2018-07-03T17:30:24.365Z,97887.57
2018-07-03T17:32:53.695Z,97889.69
2018-07-03T17:35:23.016Z,97889.34
2018-07-03T17:37:52.399Z,97892.41
2018-07-03T17:40:38.438Z,97886.12
2018-07-03T17:44:22.128Z,97886.77
2018-07-03T17:46:51.459Z,97889.03
2018-07-03T17:49:20.775Z,97891.05
2018-07-03T17:51:50.140Z,97892.04
2018-07-03T17:54:19.472Z,97896.95
2018-07-03T17:56:48.783Z,97892.89
2018-07-03T17:59:18.209Z,97893.33
2018-07-03T18:01:47.486Z,97884.40
2018-07-03T18:04:16.849Z,97885.31
2018-07-03T18:06:46.204Z,97880.98
2018-07-03T18:09:15.531Z,97883.94
2018-07-03T18:11:44.877Z,97877.82
2018-07-03T18:14:14.240Z,97876.52
2018-07-03T18:16:43.576Z,97871.81
2018-07-03T18:19:18.172Z,97872.59
2018-07-03T18:21:47.527Z,97875.77
2018-07-03T18:24:16.847Z,97872.13
2018-07-03T18:26:46.180Z,97874.14
2018-07-03T18:29:15.505Z,97875.42
2018-07-03T18:31:44.832Z,97872.69
2018-07-03T18:34:14.185Z,97879.91
2018-07-03T18:36:43.592Z,97875.67
2018-07-03T18:39:13.001Z,97880.50
2018-07-03T18:41:42.349Z,97889.08
2018-07-03T18:44:11.705Z,97882.75
2018-07-03T18:46:41.012Z,97884.84
2018-07-03T18:49:10.400Z,97888.43
2018-07-03T18:51:39.764Z,97883.66
2018-07-03T18:54:09.096Z,97882.80
2018-07-03T18:56:38.423Z,97882.02
2018-07-03T18:59:07.753Z,97892.02
2018-07-03T19:01:37.052Z,97900.11
2018-07-03T19:04:06.658Z,97903.92
2018-07-03T19:06:35.996Z,97904.36
2018-07-03T19:09:06.884Z,97910.11
2018-07-03T19:11:36.525Z,97909.32
2018-07-03T19:14:05.867Z,97916.41
2018-07-03T19:16:35.197Z,97917.79
2018-07-03T19:19:04.530Z,97920.39
2018-07-03T19:21:33.868Z,97920.22
2018-07-03T19:24:03.276Z,97930.87
2018-07-03T19:26:32.631Z,97930.11
2018-07-03T19:29:01.938Z,97926.16
2018-07-03T19:31:31.283Z,97939.72
2018-07-03T19:34:00.650Z,97941.63
2018-07-03T19:36:29.987Z,97942.87
2018-07-03T19:38:59.428Z,97947.29
2018-07-03T19:41:28.737Z,97947.38
2018-07-03T19:43:58.176Z,97949.73
2018-07-03T19:46:27.542Z,97951.51
2018-07-03T19:48:56.896Z,97956.50
2018-07-03T19:51:26.221Z,97955.37
2018-07-03T19:53:55.597Z,97951.14
2018-07-03T19:56:24.969Z,97956.94
2018-07-03T19:58:54.272Z,97958.50
2018-07-03T20:01:23.689Z,97959.28
2018-07-03T20:03:53.016Z,97964.21
2018-07-03T20:06:22.350Z,97960.12
2018-07-03T20:08:51.767Z,97957.09
2018-07-03T20:11:21.121Z,97951.95
2018-07-03T20:13:50.527Z,97953.56
2018-07-03T20:16:20.057Z,97951.09
2018-07-03T20:18:49.424Z,97957.25
2018-07-03T20:21:18.927Z,97950.75
2018-07-03T20:23:48.271Z,97958.75
2018-07-03T20:26:17.687Z,97964.08
2018-07-03T20:28:47.047Z,97956.73
2018-07-03T20:31:16.482Z,97913.05
2018-07-03T20:33:45.848Z,97949.95
2018-07-03T20:36:15.160Z,97947.14
2018-07-03T20:38:44.506Z,97946.55
2018-07-03T20:41:13.854Z,97949.01
2018-07-03T20:43:43.296Z,97951.69
2018-07-03T20:46:12.658Z,97949.89
2018-07-03T20:48:41.995Z,97953.98
2018-07-03T20:51:11.365Z,97957.06
2018-07-03T20:53:40.750Z,97959.94
2018-07-03T20:56:10.113Z,97957.80
2018-07-03T20:58:39.415Z,97962.83
2018-07-03T21:01:08.895Z,97958.23
2018-07-03T21:03:38.276Z,97957.86
2018-07-03T21:06:07.719Z,97959.24
2018-07-03T21:08:36.936Z,97964.61
2018-07-03T21:11:06.468Z,97961.39
2018-07-03T21:13:35.824Z,97962.00
2018-07-03T21:16:05.188Z,97962.71
2018-07-03T21:18:34.504Z,97965.59
2018-07-03T21:21:03.868Z,97967.42
2018-07-03T21:23:33.308Z,97965.56
2018-07-03T21:26:02.616Z,97966.41
2018-07-03T21:28:32.047Z,97967.80
2018-07-03T21:31:01.389Z,97975.55
2018-07-03T21:33:30.681Z,97968.61
2018-07-03T21:36:00.024Z,97965.19
2018-07-03T21:38:29.391Z,97961.48
2018-07-03T21:40:58.648Z,97959.95
2018-07-03T21:43:27.943Z,97965.05
2018-07-03T21:45:57.279Z,97969.23
2018-07-03T21:48:26.636Z,97971.09
2018-07-03T21:50:55.968Z,97971.98
2018-07-03T21:53:25.288Z,97968.63
2018-07-03T21:55:54.576Z,97964.84
2018-07-03T21:58:23.879Z,97965.11
2018-07-03T22:00:53.237Z,97961.25
2018-07-03T22:03:22.560Z,97961.01
2018-07-03T22:05:51.859Z,97955.63
2018-07-03T22:08:21.171Z,97962.79
2018-07-03T22:10:50.487Z,97964.16
2018-07-03T22:13:19.801Z,97963.11
2018-07-03T22:15:49.123Z,97958.70
2018-07-03T22:18:18.471Z,97955.66
2018-07-03T22:20:47.801Z,97956.92
2018-07-03T22:23:17.139Z,97959.30
2018-07-03T22:25:46.444Z,97956.97
2018-07-03T22:28:15.770Z,97963.00
2018-07-03T22:30:45.089Z,97963.58
2018-07-03T22:33:15.634Z,97960.36
2018-07-03T22:35:45.012Z,97963.13
2018-07-03T22:38:14.316Z,97964.25
2018-07-03T22:40:43.632Z,97961.87
2018-07-03T22:43:12.969Z,97959.34
2018-07-03T22:45:42.267Z,97957.70
2018-07-03T22:48:11.593Z,97966.53
2018-07-03T22:50:40.937Z,97968.11
2018-07-03T22:53:10.332Z,97967.91
2018-07-03T22:55:39.675Z,97968.74
2018-07-03T22:58:08.996Z,97964.08
2018-07-03T23:00:38.330Z,97964.53
2018-07-03T23:03:07.665Z,97968.26
2018-07-03T23:05:36.984Z,97967.48
2018-07-03T23:08:06.525Z,97972.87
2018-07-03T23:10:35.846Z,97972.58
2018-07-03T23:13:05.159Z,97972.13
2018-07-03T23:15:34.496Z,97966.81
2018-07-03T23:18:03.811Z,97971.98
2018-07-03T23:20:33.148Z,97967.61
2018-07-03T23:23:02.467Z,97967.77
2018-07-03T23:25:31.796Z,97968.83
2018-07-03T23:28:01.141Z,97984.08
2018-07-03T23:30:30.447Z,97981.81
2018-07-03T23:32:59.784Z,97985.28
2018-07-03T23:35:29.132Z,97988.17
2018-07-03T23:37:58.487Z,97980.47
2018-07-03T23:40:27.836Z,97981.34
2018-07-03T23:42:57.184Z,97985.61
2018-07-03T23:45:34.146Z,97986.59
2018-07-03T23:48:20.253Z,97989.33
2018-07-03T23:51:06.472Z,97989.14
2018-07-03T23:53:52.692Z,97992.56
2018-07-03T23:56:39.707Z,97993.16
2018-07-03T23:59:25.772Z,97998.19
